createdAt,value
2018-04-15T00:02:05.129Z,87.25
2018-04-15T00:04:33.380Z,88.00
2018-04-15T00:07:01.025Z,86.59
2018-04-15T00:09:28.919Z,86.60
2018-04-15T00:11:56.741Z,85.88
2018-04-15T00:14:26.197Z,85.98
2018-04-15T00:16:54.070Z,86.81
2018-04-15T00:19:21.815Z,86.24
2018-04-15T00:21:49.552Z,86.10
2018-04-15T00:24:17.127Z,87.66
2018-04-15T00:26:45.128Z,87.41
2018-04-15T00:29:12.898Z,88.67
2018-04-15T00:31:40.564Z,87.90
2018-04-15T00:34:08.202Z,87.41
2018-04-15T00:36:35.946Z,87.46
2018-04-15T00:39:03.959Z,87.54
2018-04-15T00:41:31.508Z,87.71
2018-04-15T00:43:59.353Z,87.27
2018-04-15T00:46:27.085Z,88.67
2018-04-15T00:48:55.213Z,89.57
2018-04-15T00:51:22.871Z,90.42
2018-04-15T00:54:02.458Z,90.51
2018-04-15T00:56:30.385Z,91.03
2018-04-15T00:58:57.990Z,89.01
2018-04-15T01:01:25.867Z,87.85
2018-04-15T01:03:53.372Z,89.85
2018-04-15T01:06:21.386Z,90.00
2018-04-15T01:08:49.122Z,90.39
2018-04-15T01:11:17.134Z,88.53
2018-04-15T01:13:44.812Z,88.75
2018-04-15T01:16:12.790Z,88.57
2018-04-15T01:18:40.507Z,88.20
2018-04-15T01:21:08.411Z,87.77
2018-04-15T01:23:36.263Z,89.13
2018-04-15T01:26:03.799Z,90.34
2018-04-15T01:28:31.476Z,89.37
2018-04-15T01:30:59.449Z,87.27
2018-04-15T01:33:27.397Z,88.66
2018-04-15T01:35:55.512Z,88.80
2018-04-15T01:38:23.172Z,88.25
2018-04-15T01:40:50.702Z,90.40
2018-04-15T01:43:18.379Z,90.27
2018-04-15T01:45:46.014Z,88.97
2018-04-15T01:48:13.872Z,88.02
2018-04-15T01:50:41.386Z,88.06
2018-04-15T01:53:09.249Z,87.69
2018-04-15T01:55:36.803Z,88.70
2018-04-15T01:58:04.322Z,90.99
2018-04-15T02:00:31.906Z,90.01
2018-04-15T02:03:00.903Z,89.32
2018-04-15T02:05:29.275Z,90.56
2018-04-15T02:07:57.381Z,91.57
2018-04-15T02:10:25.467Z,91.43
2018-04-15T02:12:52.999Z,90.12
2018-04-15T02:15:21.004Z,89.33
2018-04-15T02:17:48.681Z,88.78
2018-04-15T02:20:16.419Z,90.51
2018-04-15T02:22:44.228Z,90.83
2018-04-15T02:25:11.878Z,91.44
2018-04-15T02:27:39.888Z,92.08
2018-04-15T02:30:07.480Z,92.84
2018-04-15T02:32:35.066Z,93.41
2018-04-15T02:35:02.585Z,94.27
2018-04-15T02:37:30.128Z,93.47
2018-04-15T02:39:57.743Z,92.14
2018-04-15T02:42:25.710Z,90.73
2018-04-15T02:44:53.723Z,89.47
2018-04-15T02:47:21.479Z,91.03
2018-04-15T02:49:49.543Z,91.54
2018-04-15T02:52:17.168Z,91.75
2018-04-15T02:54:45.002Z,91.64
2018-04-15T02:57:12.604Z,90.28
2018-04-15T02:59:40.517Z,91.16
2018-04-15T03:02:08.156Z,90.41
2018-04-15T03:04:35.709Z,91.36
2018-04-15T03:07:03.454Z,90.51
2018-04-15T03:09:31.197Z,89.07
2018-04-15T03:11:59.024Z,91.52
2018-04-15T03:14:26.759Z,91.71
2018-04-15T03:16:54.480Z,93.51
2018-04-15T03:19:22.050Z,93.02
2018-04-15T03:21:49.829Z,93.47
2018-04-15T03:24:17.554Z,93.80
2018-04-15T03:26:45.475Z,94.24
2018-04-15T03:29:13.033Z,93.12
2018-04-15T03:31:40.715Z,91.76
2018-04-15T03:34:09.409Z,93.47
2018-04-15T03:36:37.346Z,93.08
2018-04-15T03:39:05.895Z,92.59
2018-04-15T03:41:33.689Z,91.87
2018-04-15T03:44:01.413Z,92.62
2018-04-15T03:46:29.475Z,93.77
2018-04-15T03:48:57.258Z,94.21
2018-04-15T03:51:24.813Z,94.94
2018-04-15T03:53:52.335Z,94.43
2018-04-15T03:56:19.899Z,92.05
2018-04-15T03:58:47.870Z,92.48
2018-04-15T04:01:15.679Z,94.20
2018-04-15T04:03:43.342Z,94.56
2018-04-15T04:06:11.158Z,94.21
2018-04-15T04:08:38.688Z,94.25
2018-04-15T04:11:06.379Z,93.74
2018-04-15T04:13:34.018Z,91.94
2018-04-15T04:16:01.727Z,91.77
2018-04-15T04:18:41.477Z,91.39
2018-04-15T04:21:20.909Z,92.63
2018-04-15T04:24:00.459Z,91.68
2018-04-15T04:26:28.148Z,90.80
2018-04-15T04:28:55.772Z,93.22
2018-04-15T04:31:23.334Z,94.09
2018-04-15T04:33:51.045Z,94.80
2018-04-15T04:36:18.640Z,95.02
2018-04-15T04:38:46.558Z,93.90
2018-04-15T04:41:14.153Z,91.95
2018-04-15T04:43:41.811Z,92.20
2018-04-15T04:46:09.788Z,93.34
2018-04-15T04:48:37.414Z,93.46
2018-04-15T04:51:04.935Z,93.09
2018-04-15T04:53:32.744Z,91.57
2018-04-15T04:56:00.504Z,91.83
2018-04-15T04:58:28.331Z,92.30
2018-04-15T05:00:55.885Z,93.18
2018-04-15T05:03:23.514Z,94.04
2018-04-15T05:05:51.669Z,93.67
2018-04-15T05:08:19.336Z,92.70
2018-04-15T05:10:47.018Z,93.19
2018-04-15T05:13:14.695Z,93.80
2018-04-15T05:15:42.434Z,93.91
2018-04-15T05:18:09.970Z,93.28
2018-04-15T05:20:37.579Z,92.04
2018-04-15T05:23:05.113Z,90.27
2018-04-15T05:25:33.031Z,89.47
2018-04-15T05:28:00.923Z,91.72
2018-04-15T05:30:28.630Z,93.53
2018-04-15T05:32:56.789Z,93.31
2018-04-15T05:35:24.335Z,91.67
2018-04-15T05:37:52.002Z,88.84
2018-04-15T05:40:19.723Z,86.84
2018-04-15T05:42:47.384Z,87.58
2018-04-15T05:45:15.017Z,87.00
2018-04-15T05:47:42.568Z,85.34
2018-04-15T05:50:10.239Z,85.98
2018-04-15T05:52:38.111Z,86.51
2018-04-15T05:55:06.225Z,86.44
2018-04-15T05:57:33.823Z,89.09
2018-04-15T06:00:01.346Z,88.19
2018-04-15T06:02:29.155Z,87.13
2018-04-15T06:04:56.709Z,85.75
2018-04-15T06:07:24.529Z,83.50
2018-04-15T06:09:52.173Z,83.50
2018-04-15T06:12:19.980Z,82.48
2018-04-15T06:14:47.709Z,83.29
2018-04-15T06:17:15.609Z,82.91
2018-04-15T06:19:43.358Z,82.38
2018-04-15T06:22:11.142Z,82.32
2018-04-15T06:24:38.856Z,79.51
2018-04-15T06:27:06.334Z,80.20
2018-04-15T06:29:34.224Z,79.16
2018-04-15T06:32:02.004Z,78.82
2018-04-15T06:34:30.106Z,77.23
2018-04-15T06:36:57.732Z,77.97
2018-04-15T06:39:25.736Z,77.53
2018-04-15T06:41:53.344Z,74.90
2018-04-15T06:44:21.571Z,74.69
2018-04-15T06:46:49.295Z,77.18
2018-04-15T06:49:17.101Z,73.96
2018-04-15T06:51:45.672Z,75.35
2018-04-15T06:54:13.355Z,73.02
2018-04-15T06:56:41.128Z,71.44
2018-04-15T06:59:09.188Z,70.40
2018-04-15T07:01:37.188Z,70.57
2018-04-15T07:04:05.064Z,69.34
2018-04-15T07:06:32.848Z,67.49
2018-04-15T07:09:00.782Z,65.03
2018-04-15T07:11:28.537Z,61.64
2018-04-15T07:13:56.830Z,62.60
2018-04-15T07:16:24.403Z,66.46
2018-04-15T07:18:52.055Z,65.86
2018-04-15T07:21:19.590Z,63.00
2018-04-15T07:23:48.229Z,60.44
2018-04-15T07:26:16.936Z,59.49
2018-04-15T07:28:44.490Z,59.19
2018-04-15T07:31:12.277Z,57.52
2018-04-15T07:33:39.929Z,54.50
2018-04-15T07:36:07.432Z,57.11
2018-04-15T07:38:35.109Z,60.70
2018-04-15T07:41:02.676Z,56.27
2018-04-15T07:43:30.411Z,58.71
2018-04-15T07:45:58.136Z,57.79
2018-04-15T07:48:25.749Z,54.46
2018-04-15T07:50:53.691Z,57.59
2018-04-15T07:53:21.285Z,54.24
2018-04-15T07:55:49.095Z,55.19
2018-04-15T07:58:16.791Z,54.34
2018-04-15T08:00:44.710Z,52.53
2018-04-15T08:03:12.863Z,50.93
2018-04-15T08:05:40.871Z,51.71
2018-04-15T08:08:08.551Z,54.09
2018-04-15T08:10:36.237Z,53.66
2018-04-15T08:13:03.826Z,56.08
2018-04-15T08:15:31.830Z,53.21
2018-04-15T08:17:59.513Z,52.56
2018-04-15T08:20:27.071Z,52.20
2018-04-15T08:22:54.847Z,54.73
2018-04-15T08:25:22.763Z,48.83
2018-04-15T08:27:50.516Z,49.20
2018-04-15T08:30:18.330Z,51.25
2018-04-15T08:32:46.252Z,51.90
2018-04-15T08:35:14.037Z,47.90
2018-04-15T08:37:41.756Z,49.29
2018-04-15T08:40:09.370Z,51.01
2018-04-15T08:42:37.245Z,53.34
2018-04-15T08:45:04.865Z,54.90
2018-04-15T08:47:32.411Z,55.10
2018-04-15T08:50:00.342Z,52.66
2018-04-15T08:52:28.270Z,53.87
2018-04-15T08:54:56.205Z,52.09
2018-04-15T08:57:23.967Z,52.08
2018-04-15T08:59:51.728Z,54.47
2018-04-15T09:02:19.516Z,51.46
2018-04-15T09:04:47.216Z,45.54
2018-04-15T09:07:15.214Z,43.43
2018-04-15T09:09:42.870Z,45.39
2018-04-15T09:12:11.169Z,43.87
2018-04-15T09:14:39.181Z,45.08
2018-04-15T09:17:06.949Z,43.80
2018-04-15T09:19:34.615Z,48.10
2018-04-15T09:22:02.521Z,48.78
2018-04-15T09:24:30.155Z,47.27
2018-04-15T09:26:57.810Z,45.60
2018-04-15T09:29:25.636Z,44.08
2018-04-15T09:31:53.735Z,45.01
2018-04-15T09:34:21.476Z,41.71
2018-04-15T09:36:49.114Z,42.92
2018-04-15T09:39:16.716Z,45.64
2018-04-15T09:41:44.773Z,50.02
2018-04-15T09:44:12.486Z,50.39
2018-04-15T09:46:40.068Z,42.29
2018-04-15T09:49:07.785Z,37.93
2018-04-15T09:51:35.626Z,40.61
2018-04-15T09:54:03.415Z,42.21
2018-04-15T09:56:31.164Z,43.24
2018-04-15T09:58:58.894Z,48.46
2018-04-15T10:01:26.703Z,41.83
2018-04-15T10:03:54.238Z,40.46
2018-04-15T10:06:21.817Z,34.84
2018-04-15T10:08:49.375Z,33.97
2018-04-15T10:11:17.083Z,31.03
2018-04-15T10:13:44.634Z,31.04
2018-04-15T10:16:12.289Z,33.21
2018-04-15T10:18:39.800Z,34.82
2018-04-15T10:21:07.524Z,34.56
2018-04-15T10:23:35.184Z,29.89
2018-04-15T10:26:02.904Z,28.70
2018-04-15T10:28:30.559Z,27.69
2018-04-15T10:30:58.200Z,29.82
2018-04-15T10:33:25.813Z,30.91
2018-04-15T10:35:53.452Z,32.20
2018-04-15T10:38:21.084Z,32.70
2018-04-15T10:40:48.647Z,30.91
2018-04-15T10:43:16.236Z,31.19
2018-04-15T10:45:43.830Z,30.93
2018-04-15T10:48:11.353Z,35.11
2018-04-15T10:50:39.012Z,36.95
2018-04-15T10:53:07.043Z,33.60
2018-04-15T10:55:34.670Z,34.44
2018-04-15T10:58:02.374Z,33.36
2018-04-15T11:00:30.271Z,34.67
2018-04-15T11:02:57.978Z,34.93
2018-04-15T11:05:25.515Z,34.96
2018-04-15T11:07:53.043Z,36.79
2018-04-15T11:10:20.827Z,37.17
2018-04-15T11:12:48.423Z,38.69
2018-04-15T11:15:15.982Z,37.33
2018-04-15T11:17:43.807Z,38.43
2018-04-15T11:20:11.625Z,36.03
2018-04-15T11:22:39.207Z,34.80
2018-04-15T11:25:06.838Z,34.13
2018-04-15T11:27:34.442Z,37.99
2018-04-15T11:30:02.026Z,40.42
2018-04-15T11:32:29.590Z,38.49
2018-04-15T11:34:57.151Z,40.19
2018-04-15T11:37:24.660Z,41.94
2018-04-15T11:39:52.496Z,42.20
2018-04-15T11:42:20.126Z,41.45
2018-04-15T11:44:47.823Z,41.40
2018-04-15T11:47:15.977Z,44.53
2018-04-15T11:49:43.551Z,43.37
2018-04-15T11:52:11.312Z,45.26
2018-04-15T11:54:38.869Z,44.26
2018-04-15T11:57:06.485Z,43.23
2018-04-15T11:59:34.157Z,44.03
2018-04-15T12:02:01.686Z,43.14
2018-04-15T12:04:29.361Z,42.67
2018-04-15T12:06:57.291Z,43.47
2018-04-15T12:09:24.891Z,43.64
2018-04-15T12:11:53.837Z,43.76
2018-04-15T12:14:21.851Z,43.46
2018-04-15T12:16:49.396Z,42.03
2018-04-15T12:19:17.001Z,42.90
2018-04-15T12:21:45.009Z,42.56
2018-04-15T12:24:12.546Z,40.75
2018-04-15T12:26:40.163Z,39.37
2018-04-15T12:29:07.696Z,36.38
2018-04-15T12:31:35.285Z,36.05
2018-04-15T12:34:02.816Z,35.66
2018-04-15T12:36:30.368Z,32.74
2018-04-15T12:38:58.047Z,31.21
2018-04-15T12:41:25.807Z,30.80
2018-04-15T12:43:54.068Z,28.05
2018-04-15T12:46:21.602Z,25.04
2018-04-15T12:48:49.137Z,24.33
2018-04-15T12:51:16.665Z,24.08
2018-04-15T12:53:44.270Z,23.45
2018-04-15T12:56:11.802Z,23.24
2018-04-15T12:58:39.317Z,22.03
2018-04-15T13:01:07.016Z,20.56
2018-04-15T13:03:34.578Z,22.40
2018-04-15T13:06:02.377Z,22.88
2018-04-15T13:08:30.392Z,22.25
2018-04-15T13:10:58.113Z,22.00
2018-04-15T13:13:26.313Z,22.20
2018-04-15T13:15:54.084Z,20.24
2018-04-15T13:18:21.764Z,20.25
2018-04-15T13:20:49.382Z,22.51
2018-04-15T13:23:16.899Z,24.62
2018-04-15T13:25:44.554Z,24.12
2018-04-15T13:28:12.968Z,23.58
2018-04-15T13:30:40.522Z,23.11
2018-04-15T13:33:08.050Z,22.92
2018-04-15T13:35:35.583Z,24.33
2018-04-15T13:38:03.302Z,25.26
2018-04-15T13:40:30.987Z,23.82
2018-04-15T13:42:58.528Z,24.61
2018-04-15T13:45:26.147Z,24.11
2018-04-15T13:47:53.675Z,25.36
2018-04-15T13:50:21.318Z,29.41
2018-04-15T13:52:49.014Z,28.34
2018-04-15T13:55:17.564Z,24.45
2018-04-15T13:57:45.133Z,26.62
2018-04-15T14:00:12.875Z,27.07
2018-04-15T14:02:40.522Z,28.78
2018-04-15T14:05:08.159Z,27.99
2018-04-15T14:07:35.819Z,26.90
2018-04-15T14:10:03.462Z,29.87
2018-04-15T14:12:31.019Z,32.72
2018-04-15T14:14:58.729Z,31.34
2018-04-15T14:17:26.257Z,30.74
2018-04-15T14:19:53.931Z,33.61
2018-04-15T14:22:21.583Z,34.10
2018-04-15T14:24:49.107Z,34.08
2018-04-15T14:27:16.702Z,34.94
2018-04-15T14:29:44.245Z,35.60
2018-04-15T14:32:11.845Z,35.29
2018-04-15T14:34:39.373Z,35.66
2018-04-15T14:37:06.924Z,35.03
2018-04-15T14:39:34.483Z,36.75
2018-04-15T14:42:02.175Z,37.64
2018-04-15T14:44:29.744Z,36.73
2018-04-15T14:46:57.338Z,37.19
2018-04-15T14:49:24.938Z,36.77
2018-04-15T14:51:52.455Z,36.41
2018-04-15T14:54:20.046Z,37.45
2018-04-15T14:56:47.652Z,35.97
2018-04-15T14:59:15.404Z,36.89
2018-04-15T15:01:42.953Z,38.08
2018-04-15T15:04:10.564Z,38.42
2018-04-15T15:06:38.158Z,37.97
2018-04-15T15:09:06.577Z,38.15
2018-04-15T15:11:34.114Z,38.38
2018-04-15T15:14:01.875Z,39.30
2018-04-15T15:16:29.473Z,38.91
2018-04-15T15:18:57.079Z,39.10
2018-04-15T15:21:24.788Z,38.49
2018-04-15T15:23:52.464Z,38.50
2018-04-15T15:26:20.108Z,39.58
2018-04-15T15:28:47.797Z,38.96
2018-04-15T15:31:15.820Z,40.35
2018-04-15T15:33:43.359Z,40.14
2018-04-15T15:36:10.897Z,39.39
2018-04-15T15:38:38.650Z,37.08
2018-04-15T15:41:06.419Z,38.69
2018-04-15T15:43:33.957Z,40.14
2018-04-15T15:46:02.364Z,41.05
2018-04-15T15:48:29.894Z,40.61
2018-04-15T15:50:57.461Z,40.43
2018-04-15T15:53:25.025Z,42.24
2018-04-15T15:55:52.728Z,41.59
2018-04-15T15:58:20.263Z,44.23
2018-04-15T16:00:47.883Z,41.58
2018-04-15T16:03:15.542Z,41.89
2018-04-15T16:05:43.090Z,42.62
2018-04-15T16:08:10.897Z,40.36
2018-04-15T16:10:38.424Z,41.97
2018-04-15T16:13:06.079Z,40.97
2018-04-15T16:15:33.733Z,41.21
2018-04-15T16:18:01.399Z,42.26
2018-04-15T16:20:28.958Z,42.24
2018-04-15T16:22:56.595Z,42.00
2018-04-15T16:25:24.434Z,43.60
2018-04-15T16:27:52.153Z,43.45
2018-04-15T16:30:20.039Z,43.45
2018-04-15T16:32:47.604Z,43.48
2018-04-15T16:35:15.164Z,43.35
2018-04-15T16:37:42.909Z,44.17
2018-04-15T16:40:10.544Z,43.48
2018-04-15T16:42:38.190Z,43.74
2018-04-15T16:45:05.777Z,44.75
2018-04-15T16:47:33.396Z,44.41
2018-04-15T16:50:01.619Z,45.64
2018-04-15T16:52:29.244Z,46.48
2018-04-15T16:54:57.205Z,47.47
2018-04-15T16:57:24.730Z,47.38
2018-04-15T16:59:52.292Z,47.13
2018-04-15T17:02:19.958Z,46.82
2018-04-15T17:04:47.612Z,47.34
2018-04-15T17:07:15.555Z,46.15
2018-04-15T17:09:43.215Z,47.07
2018-04-15T17:12:10.809Z,48.10
2018-04-15T17:14:38.581Z,50.55
2018-04-15T17:17:06.256Z,51.22
2018-04-15T17:19:33.809Z,50.19
2018-04-15T17:22:01.488Z,49.46
2018-04-15T17:24:29.043Z,52.01
2018-04-15T17:26:56.595Z,53.23
2018-04-15T17:29:24.255Z,52.38
2018-04-15T17:31:51.902Z,54.58
2018-04-15T17:34:19.465Z,55.04
2018-04-15T17:36:47.213Z,55.57
2018-04-15T17:39:14.974Z,56.72
2018-04-15T17:41:42.807Z,57.25
2018-04-15T17:44:10.559Z,56.54
2018-04-15T17:46:38.372Z,56.28
2018-04-15T17:49:06.437Z,57.73
2018-04-15T17:51:34.199Z,57.08
2018-04-15T17:54:02.014Z,58.43
2018-04-15T17:56:30.090Z,59.53
2018-04-15T17:58:57.747Z,58.34
2018-04-15T18:01:25.359Z,59.49
2018-04-15T18:03:52.983Z,60.04
2018-04-15T18:06:20.774Z,59.81
2018-04-15T18:08:49.394Z,60.23
2018-04-15T18:11:17.043Z,60.62
2018-04-15T18:13:44.756Z,59.54
2018-04-15T18:16:12.531Z,60.57
2018-04-15T18:18:40.159Z,60.00
2018-04-15T18:21:07.809Z,59.70
2018-04-15T18:23:35.631Z,62.33
2018-04-15T18:26:03.280Z,62.29
2018-04-15T18:28:30.979Z,64.33
2018-04-15T18:30:58.569Z,64.83
2018-04-15T18:33:26.273Z,64.77
2018-04-15T18:35:54.133Z,62.50
2018-04-15T18:38:21.911Z,64.53
2018-04-15T18:40:51.273Z,65.39
2018-04-15T18:43:18.871Z,64.01
2018-04-15T18:45:46.444Z,64.65
2018-04-15T18:48:14.132Z,67.12
2018-04-15T18:50:41.926Z,66.05
2018-04-15T18:53:09.609Z,65.93
2018-04-15T18:55:37.373Z,64.46
2018-04-15T18:58:04.937Z,64.50
2018-04-15T19:00:32.667Z,65.33
2018-04-15T19:03:00.248Z,64.95
2018-04-15T19:05:28.014Z,65.65
2018-04-15T19:07:55.666Z,66.15
2018-04-15T19:10:23.234Z,65.97
2018-04-15T19:12:50.904Z,67.15
2018-04-15T19:15:18.764Z,66.52
2018-04-15T19:17:46.464Z,66.79
2018-04-15T19:20:14.026Z,67.43
2018-04-15T19:22:41.756Z,67.96
2018-04-15T19:25:09.340Z,68.27
2018-04-15T19:27:36.967Z,68.16
2018-04-15T19:30:04.850Z,68.82
2018-04-15T19:32:32.464Z,68.29
2018-04-15T19:35:00.186Z,70.42
2018-04-15T19:37:27.752Z,68.98
2018-04-15T19:39:55.325Z,69.65
2018-04-15T19:42:22.862Z,69.92
2018-04-15T19:44:50.425Z,69.96
2018-04-15T19:47:18.865Z,69.73
2018-04-15T19:49:46.817Z,70.52
2018-04-15T19:52:14.349Z,72.64
2018-04-15T19:54:42.112Z,71.82
2018-04-15T19:57:09.686Z,73.42
2018-04-15T19:59:37.361Z,72.65
2018-04-15T20:02:04.957Z,75.13
2018-04-15T20:04:32.690Z,74.79
2018-04-15T20:07:00.347Z,74.50
2018-04-15T20:09:28.076Z,74.15
2018-04-15T20:11:55.836Z,73.69
2018-04-15T20:14:23.404Z,73.80
2018-04-15T20:16:51.029Z,74.12
2018-04-15T20:19:18.649Z,74.64
2018-04-15T20:21:46.315Z,75.26
2018-04-15T20:24:14.054Z,76.73
2018-04-15T20:26:41.772Z,75.93
2018-04-15T20:29:09.544Z,74.75
2018-04-15T20:31:37.169Z,75.65
2018-04-15T20:34:04.711Z,75.21
2018-04-15T20:36:32.472Z,76.19
2018-04-15T20:39:00.034Z,76.57
2018-04-15T20:41:27.681Z,75.80
2018-04-15T20:43:55.225Z,78.33
2018-04-15T20:46:22.886Z,78.06
2018-04-15T20:48:50.628Z,76.19
2018-04-15T20:51:18.260Z,75.96
2018-04-15T20:53:45.868Z,74.71
2018-04-15T20:56:13.568Z,76.29
2018-04-15T20:58:41.297Z,78.52
2018-04-15T21:01:08.951Z,78.33
2018-04-15T21:03:36.576Z,77.06
2018-04-15T21:06:04.289Z,77.85
2018-04-15T21:08:31.935Z,79.83
2018-04-15T21:10:59.690Z,80.45
2018-04-15T21:13:27.240Z,80.73
2018-04-15T21:15:54.982Z,81.45
2018-04-15T21:18:22.526Z,81.70
2018-04-15T21:20:50.191Z,81.97
2018-04-15T21:23:17.869Z,81.38
2018-04-15T21:25:46.305Z,80.91
2018-04-15T21:28:13.935Z,80.26
2018-04-15T21:30:41.511Z,80.47
2018-04-15T21:33:12.235Z,80.63
2018-04-15T21:35:39.778Z,80.21
2018-04-15T21:38:07.316Z,80.19
2018-04-15T21:40:35.202Z,81.09
2018-04-15T21:43:03.035Z,81.84
2018-04-15T21:45:30.837Z,81.30
2018-04-15T21:47:58.360Z,79.49
2018-04-15T21:50:25.931Z,80.31
2018-04-15T21:52:53.485Z,82.59
2018-04-15T21:55:21.112Z,83.29
2018-04-15T21:57:48.846Z,81.69
2018-04-15T22:00:16.465Z,80.55
2018-04-15T22:02:44.034Z,80.18
2018-04-15T22:05:11.656Z,79.77
2018-04-15T22:07:39.605Z,79.14
2018-04-15T22:10:07.170Z,78.62
2018-04-15T22:12:34.964Z,78.52
2018-04-15T22:15:02.490Z,78.95
2018-04-15T22:17:30.284Z,81.81
2018-04-15T22:19:57.917Z,82.82
2018-04-15T22:22:25.567Z,82.76
2018-04-15T22:24:53.225Z,82.09
2018-04-15T22:27:20.929Z,82.46
2018-04-15T22:29:48.615Z,81.62
2018-04-15T22:32:16.486Z,81.66
2018-04-15T22:34:44.576Z,83.77
2018-04-15T22:37:12.571Z,80.90
2018-04-15T22:39:40.248Z,78.89
2018-04-15T22:42:08.081Z,79.24
2018-04-15T22:44:36.512Z,76.92
2018-04-15T22:47:04.201Z,76.70
2018-04-15T22:49:32.151Z,76.40
2018-04-15T22:51:59.776Z,78.81
2018-04-15T22:54:27.472Z,80.00
2018-04-15T22:56:55.337Z,79.46
2018-04-15T22:59:22.882Z,77.57
2018-04-15T23:01:50.442Z,76.71
2018-04-15T23:04:17.986Z,76.80
2018-04-15T23:06:45.667Z,75.05
2018-04-15T23:09:13.450Z,75.33
2018-04-15T23:11:41.262Z,74.73
2018-04-15T23:14:09.491Z,74.87
2018-04-15T23:16:37.041Z,76.33
2018-04-15T23:19:05.065Z,74.66
2018-04-15T23:21:32.603Z,75.49
2018-04-15T23:24:00.164Z,77.23
2018-04-15T23:26:27.943Z,75.89
2018-04-15T23:28:55.686Z,75.82
2018-04-15T23:31:23.397Z,79.16
2018-04-15T23:33:51.143Z,80.67
2018-04-15T23:36:18.708Z,82.50
2018-04-15T23:38:46.361Z,83.87
2018-04-15T23:41:14.327Z,86.85
2018-04-15T23:43:41.861Z,85.50
2018-04-15T23:46:09.744Z,85.59
2018-04-15T23:48:37.423Z,84.78
2018-04-15T23:51:05.035Z,86.98
2018-04-15T23:53:32.696Z,88.21
2018-04-15T23:56:00.448Z,88.83
2018-04-15T23:58:28.416Z,88.90
